Main page
METAR-TAF:

METAR-TAF

Airports :

Tel Aviv / Ben Gurion, Israel

Ben Gurion Airport

latitude: 32-00N, longitude: 034-54E, elevation: 40 m

Current weather observation

The report was made 26 minutes ago, at 20:20 UTC
Wind 3 kt from variable directions
Temperature 24°C
Humidity 78%
Pressure 1012 hPa
Visibility 10 km or more
Scattered clouds at a height of 2400 ft

METAR: LLBG 232020Z VRB03KT 9999 SCT024 24/20 Q1012 NOSIG

Time: 23:46 (20:46 UTC)

Forecast

The report was made 3 hours and 43 minutes ago, at 17:03 UTC
Forecast valid from 23 at 18 UTC to 24 at 18 UTC
Wind 6 kt from the North/Northwest
Visibility 10 km or more
Scattered clouds at a height of 2000 ft
Becoming
from 23 at 19 UTC to 23 at 21 UTC
Wind 4 kt from the Southeast
Becoming
from 24 at 06 UTC to 24 at 08 UTC
Wind 10 kt from the West
Visibility 10 km or more
no clouds below 1500 m and no cumulonimbus

TAF: LLBG 231703Z 2318/2418 34006KT 9999 SCT020 BECMG 2319/2321 14004KT BECMG 2406/2408 28010KT CAVOK TX31/2411Z TN21/2403Z

Weather observations and forecasts of more than 4000 airports (METAR and TAF reports).

The available stations are represented by yellow and red dots on the map.

Hover mouse over dot to see the name of the station.

Then click to see weather observations and forecasts.

To change the map : click on the green buttons with a black cross to zoom in, on the green button with a dash to zoom out, or on the green arrows for adjacent maps.


METAR-TAF: